Aviation Digital Data Service (ADDS)

Output produced by METARs form (0446 UTC 19 August 2019)
found at http://www.aviationweather.gov/metar/data/
 
METAR text: FZQA 190400Z 12006KT CAVOK 11/03 Q1022 NOSIG
Conditions at: FZQA (LUBUMBASHI/LUANO, CD) observed 0400 UTC 19 August 2019
Temperature: 11.0°C (52°F)
Dewpoint: 3.0°C (37°F) [RH = 58%]
Pressure (altimeter): 30.18 inches Hg (1022.0 mb)
Winds: from the ESE (120 degrees) at 7 MPH (6 knots; 3.1 m/s)
Visibility: 6 or more miles (10+ km)
Ceiling: ceiling and visibility are OK
Clouds: unknown
Weather: no significant weather observed at this time

METAR text: FZQA 181900Z 10005KT 9000 NSC 20/05 Q1021 NOSIG
Conditions at: FZQA (LUBUMBASHI/LUANO, CD) observed 1900 UTC 18 August 2019
Temperature: 20.0°C (68°F)
Dewpoint: 5.0°C (41°F) [RH = 37%]
Pressure (altimeter): 30.15 inches Hg (1021.0 mb)
Winds: from the E (100 degrees) at 6 MPH (5 knots; 2.6 m/s)
Visibility: 6 miles ( 9 km)
Ceiling: at least 12,000 feet AGL
Clouds: sky clear below 12,000 feet AGL
Weather: no significant weather observed at this time

METAR text: FZQA 181800Z 09004KT 9000 NSC 20/08 Q1020 NOSIG
Conditions at: FZQA (LUBUMBASHI/LUANO, CD) observed 1800 UTC 18 August 2019
Temperature: 20.0°C (68°F)
Dewpoint: 8.0°C (46°F) [RH = 46%]
Pressure (altimeter): 30.12 inches Hg (1020.0 mb)
Winds: from the E (90 degrees) at 5 MPH (4 knots; 2.1 m/s)
Visibility: 6 miles ( 9 km)
Ceiling: at least 12,000 feet AGL
Clouds: sky clear below 12,000 feet AGL
Weather: no significant weather observed at this time

METAR text: FZQA 181200Z 18012KT CAVOK 27/09 Q1020 NOSIG
Conditions at: FZQA (LUBUMBASHI/LUANO, CD) observed 1200 UTC 18 August 2019
Temperature: 27.0°C (81°F)
Dewpoint: 9.0°C (48°F) [RH = 32%]
Pressure (altimeter): 30.12 inches Hg (1020.0 mb)
Winds: from the S (180 degrees) at 14 MPH (12 knots; 6.2 m/s)
Visibility: 6 or more miles (10+ km)
Ceiling: ceiling and visibility are OK
Clouds: unknown
Weather: no significant weather observed at this time

METAR text: FZQA 180500Z 00000KT 8000 HZ NSC 13/09 Q1023 NOSIG
Conditions at: FZQA (LUBUMBASHI/LUANO, CD) observed 0500 UTC 18 August 2019
Temperature: 13.0°C (55°F)
Dewpoint: 9.0°C (48°F) [RH = 77%]
Pressure (altimeter): 30.21 inches Hg (1023.0 mb)
Winds: calm
Visibility: 5 miles ( 8 km)
Ceiling: at least 12,000 feet AGL
Clouds: sky clear below 12,000 feet AGL
Weather: HZ  (haze)

METAR text: FZQA 180400Z 12004KT 9000 HZ NSC 13/10 Q1022 NOSIG
Conditions at: FZQA (LUBUMBASHI/LUANO, CD) observed 0400 UTC 18 August 2019
Temperature: 13.0°C (55°F)
Dewpoint: 10.0°C (50°F) [RH = 82%]
Pressure (altimeter): 30.18 inches Hg (1022.0 mb)
Winds: from the ESE (120 degrees) at 5 MPH (4 knots; 2.1 m/s)
Visibility: 6 miles ( 9 km)
Ceiling: at least 12,000 feet AGL
Clouds: sky clear below 12,000 feet AGL
Weather: HZ  (haze)

METAR text: FZQA 171700Z 14004KT CAVOK 22/12 Q1020 NOSIG
Conditions at: FZQA (LUBUMBASHI/LUANO, CD) observed 1700 UTC 17 August 2019
Temperature: 22.0°C (72°F)
Dewpoint: 12.0°C (54°F) [RH = 53%]
Pressure (altimeter): 30.12 inches Hg (1020.0 mb)
Winds: from the SE (140 degrees) at 5 MPH (4 knots; 2.1 m/s)
Visibility: 6 or more miles (10+ km)
Ceiling: ceiling and visibility are OK
Clouds: unknown
Weather: no significant weather observed at this time